Time;durP1;ratioP1;P1;durP2;ratioP2;P2;SDS_P1;SDS_P2;PMS_P1;PMS_P2;Temp;Humidity;BMP_temperature;BMP_pressure;BME280_temperature;BME280_humidity;BME280_pressure;Samples;Min_cycle;Max_cycle;Signal;HPM_P1;HPM_P2
2021/11/05 00:00:22;;;;;;;23.80;9.13;;;;;;;;;;4424262;32;20340;-56
2021/11/05 00:02:48;;;;;;;18.60;8.20;;;;;;;;;;4417548;32;20272;-55
2021/11/05 00:05:17;;;;;;;22.20;11.17;;;;;;;;;;4419746;32;20781;-55
2021/11/05 00:07:42;;;;;;;23.53;9.00;;;;;;;;;;4433355;32;20307;-55
2021/11/05 00:10:08;;;;;;;21.53;8.90;;;;;;;;;;4432803;32;20224;-55
2021/11/05 00:12:33;;;;;;;16.17;9.50;;;;;;;;;;4432922;32;20309;-54
2021/11/05 00:14:59;;;;;;;17.73;9.60;;;;;;;;;;4432679;32;20310;-54
2021/11/05 00:17:24;;;;;;;30.13;15.23;;;;;;;;;;4433056;32;20729;-55
2021/11/05 00:19:50;;;;;;;27.00;12.10;;;;;;;;;;4433165;32;20287;-56
2021/11/05 00:22:15;;;;;;;21.87;11.80;;;;;;;;;;4432795;32;20241;-56
2021/11/05 00:24:41;;;;;;;21.47;10.80;;;;;;;;;;4431445;32;20315;-57
2021/11/05 00:27:06;;;;;;;23.73;12.10;;;;;;;;;;4431770;32;20291;-56
2021/11/05 00:29:32;;;;;;;21.80;11.40;;;;;;;;;;4432807;32;20292;-56
2021/11/05 00:31:57;;;;;;;17.53;10.47;;;;;;;;;;4432688;32;20683;-56
2021/11/05 00:34:22;;;;;;;13.80;9.40;;;;;;;;;;4433071;32;20727;-56
2021/11/05 00:36:48;;;;;;;19.97;11.40;;;;;;;;;;4432987;32;20213;-55
2021/11/05 00:39:15;;;;;;;17.23;10.63;;;;;;;;;;4432664;32;20268;-55
2021/11/05 00:41:41;;;;;;;22.23;11.60;;;;;;;;;;4432747;32;20689;-55
2021/11/05 00:44:07;;;;;;;17.70;11.67;;;;;;;;;;4432525;32;20314;-55
2021/11/05 00:46:33;;;;;;;22.43;12.13;;;;;;;;;;4432776;32;20249;-55
2021/11/05 00:49:00;;;;;;;20.87;10.90;;;;;;;;;;4433022;32;20225;-55
2021/11/05 00:51:27;;;;;;;23.53;10.70;;;;;;;;;;4432841;32;20418;-55
2021/11/05 00:53:53;;;;;;;22.10;10.80;;;;;;;;;;4433171;32;20220;-56
2021/11/05 00:56:18;;;;;;;21.23;11.67;;;;;;;;;;4432643;32;20335;-55
2021/11/05 00:58:44;;;;;;;21.10;11.87;;;;;;;;;;4433120;32;20661;-55
2021/11/05 01:01:09;;;;;;;19.77;10.17;;;;;;;;;;4432180;32;20245;-56
2021/11/05 01:03:35;;;;;;;23.27;13.23;;;;;;;;;;4432912;32;20306;-55
2021/11/05 01:06:00;;;;;;;26.13;11.83;;;;;;;;;;4425286;32;20641;-55
2021/11/05 01:08:26;;;;;;;24.60;12.67;;;;;;;;;;4417640;32;20579;-57
2021/11/05 01:10:52;;;;;;;23.43;12.50;;;;;;;;;;4417143;32;20318;-54
2021/11/05 01:13:17;;;;;;;16.93;10.87;;;;;;;;;;4417247;32;20342;-57
2021/11/05 01:15:43;;;;;;;21.70;12.40;;;;;;;;;;4422877;32;20284;-55
2021/11/05 01:18:08;;;;;;;22.93;12.93;;;;;;;;;;4435142;32;20232;-55
2021/11/05 01:20:34;;;;;;;16.17;9.83;;;;;;;;;;4435904;32;20627;-55
2021/11/05 01:22:59;;;;;;;19.70;9.40;;;;;;;;;;4435534;32;20585;-55
2021/11/05 01:25:25;;;;;;;17.77;10.03;;;;;;;;;;4435320;32;20311;-55
2021/11/05 01:27:51;;;;;;;15.53;8.43;;;;;;;;;;4435837;32;20354;-55
2021/11/05 01:30:17;;;;;;;20.07;9.43;;;;;;;;;;4435256;32;20676;-55
2021/11/05 01:32:43;;;;;;;22.47;11.50;;;;;;;;;;4435330;32;20217;-55
2021/11/05 01:35:10;;;;;;;19.50;10.80;;;;;;;;;;4435219;32;20467;-55
2021/11/05 01:37:35;;;;;;;18.97;10.03;;;;;;;;;;4435368;32;20283;-55
2021/11/05 01:40:01;;;;;;;19.63;9.80;;;;;;;;;;4435609;32;20367;-56
2021/11/05 01:42:27;;;;;;;21.03;9.70;;;;;;;;;;4435090;32;20274;-55
2021/11/05 01:44:53;;;;;;;16.60;10.00;;;;;;;;;;4435507;32;20597;-55
2021/11/05 01:47:19;;;;;;;15.43;9.10;;;;;;;;;;4435333;32;20306;-56
2021/11/05 01:49:46;;;;;;;19.23;9.37;;;;;;;;;;4435314;32;20402;-55
2021/11/05 01:52:14;;;;;;;20.23;8.30;;;;;;;;;;4435227;32;20319;-55
2021/11/05 01:54:39;;;;;;;16.40;7.30;;;;;;;;;;4435584;32;20589;-55
2021/11/05 01:57:05;;;;;;;15.40;7.47;;;;;;;;;;4435126;32;20225;-55
2021/11/05 01:59:33;;;;;;;14.90;7.87;;;;;;;;;;4435159;32;20318;-56
2021/11/05 02:02:00;;;;;;;16.47;7.43;;;;;;;;;;4434958;32;20233;-54
2021/11/05 02:04:29;;;;;;;13.57;7.53;;;;;;;;;;4435492;32;20518;-56
2021/11/05 02:06:55;;;;;;;16.03;7.70;;;;;;;;;;4421872;32;20257;-54
2021/11/05 02:09:23;;;;;;;13.57;9.33;;;;;;;;;;4420164;32;20243;-55
2021/11/05 02:11:51;;;;;;;21.23;8.93;;;;;;;;;;4419605;32;20267;-54
2021/11/05 02:14:21;;;;;;;18.37;9.00;;;;;;;;;;4431890;32;20261;-55
2021/11/05 02:16:50;;;;;;;14.00;8.73;;;;;;;;;;4435050;32;20225;-55
2021/11/05 02:19:19;;;;;;;18.33;10.87;;;;;;;;;;4434928;32;20224;-56
2021/11/05 02:21:47;;;;;;;20.87;10.20;;;;;;;;;;4435234;32;20272;-55
2021/11/05 02:24:14;;;;;;;21.90;9.27;;;;;;;;;;4430132;32;20524;-55
2021/11/05 02:26:41;;;;;;;17.50;9.93;;;;;;;;;;4434713;32;20305;-55
2021/11/05 02:29:07;;;;;;;21.87;10.13;;;;;;;;;;4433443;32;20791;-54
2021/11/05 02:31:33;;;;;;;18.67;11.13;;;;;;;;;;4434686;32;20217;-56
2021/11/05 02:33:59;;;;;;;21.97;11.83;;;;;;;;;;4434661;32;20287;-55
2021/11/05 02:36:26;;;;;;;18.00;11.30;;;;;;;;;;4434835;32;20259;-55
2021/11/05 02:38:52;;;;;;;23.17;12.50;;;;;;;;;;4434462;32;20351;-56
2021/11/05 02:41:19;;;;;;;20.23;11.10;;;;;;;;;;4434648;32;20220;-55
2021/11/05 02:43:45;;;;;;;19.83;10.53;;;;;;;;;;4434206;32;20223;-56
2021/11/05 02:46:11;;;;;;;18.73;10.90;;;;;;;;;;4434320;32;20249;-55
2021/11/05 02:48:36;;;;;;;20.07;11.13;;;;;;;;;;4435129;32;20331;-55
2021/11/05 02:51:02;;;;;;;23.73;11.50;;;;;;;;;;4434514;32;20224;-56
2021/11/05 02:53:27;;;;;;;23.97;11.13;;;;;;;;;;4434395;32;20269;-55
2021/11/05 02:55:53;;;;;;;18.03;11.80;;;;;;;;;;4434534;32;20340;-55
2021/11/05 02:58:19;;;;;;;17.23;9.90;;;;;;;;;;4432995;32;20846;-55
2021/11/05 03:00:47;;;;;;;18.50;9.87;;;;;;;;;;4434113;32;20272;-55
2021/11/05 03:03:13;;;;;;;18.17;10.60;;;;;;;;;;4434443;32;20271;-54
2021/11/05 03:05:39;;;;;;;17.97;12.27;;;;;;;;;;4429417;32;20869;-57
2021/11/05 03:08:05;;;;;;;20.40;11.70;;;;;;;;;;4418606;32;20275;-54
2021/11/05 03:10:32;;;;;;;25.63;12.60;;;;;;;;;;4431164;32;20696;-57
2021/11/05 03:12:58;;;;;;;26.73;13.90;;;;;;;;;;4434414;32;20220;-56
2021/11/05 03:15:23;;;;;;;32.10;12.57;;;;;;;;;;4433790;32;20280;-57
2021/11/05 03:17:49;;;;;;;17.33;10.43;;;;;;;;;;4434149;32;20541;-55
2021/11/05 03:20:16;;;;;;;26.00;13.10;;;;;;;;;;4434151;32;20287;-58
2021/11/05 03:22:42;;;;;;;28.33;13.10;;;;;;;;;;4434103;32;20251;-55
2021/11/05 03:25:08;;;;;;;17.10;10.77;;;;;;;;;;4433531;32;20666;-56
2021/11/05 03:27:34;;;;;;;24.90;11.00;;;;;;;;;;4433878;32;20287;-56
2021/11/05 03:30:00;;;;;;;17.37;11.17;;;;;;;;;;4433609;32;20328;-55
2021/11/05 03:32:25;;;;;;;20.47;8.43;;;;;;;;;;4434062;32;20229;-55
2021/11/05 03:34:51;;;;;;;15.00;8.23;;;;;;;;;;4433733;32;20284;-56
2021/11/05 03:37:16;;;;;;;21.17;9.27;;;;;;;;;;4433581;32;20334;-56
2021/11/05 03:39:42;;;;;;;18.00;9.20;;;;;;;;;;4433305;32;20707;-56
2021/11/05 03:42:08;;;;;;;15.10;9.30;;;;;;;;;;4433998;32;20248;-57
2021/11/05 03:44:34;;;;;;;14.80;9.20;;;;;;;;;;4433673;32;20255;-57
2021/11/05 03:46:59;;;;;;;18.83;7.33;;;;;;;;;;4433974;32;20620;-55
2021/11/05 03:49:25;;;;;;;8.17;5.73;;;;;;;;;;4433479;32;20272;-56
2021/11/05 03:51:51;;;;;;;12.27;7.67;;;;;;;;;;4433572;32;20252;-55
2021/11/05 03:54:16;;;;;;;9.73;6.37;;;;;;;;;;4433944;32;20317;-56
2021/11/05 03:56:42;;;;;;;10.73;7.50;;;;;;;;;;4432389;32;20398;-56
2021/11/05 03:59:08;;;;;;;13.57;7.30;;;;;;;;;;4433060;32;20283;-56
2021/11/05 04:01:33;;;;;;;17.57;7.97;;;;;;;;;;4433102;32;20279;-56
2021/11/05 04:03:58;;;;;;;13.83;9.07;;;;;;;;;;4432504;32;20209;-56
2021/11/05 04:06:25;;;;;;;19.70;9.63;;;;;;;;;;4432243;32;20270;-56
2021/11/05 04:08:50;;;;;;;16.83;9.73;;;;;;;;;;4433061;32;20383;-56
2021/11/05 04:11:17;;;;;;;14.87;8.13;;;;;;;;;;4432469;32;20221;-56
2021/11/05 04:13:44;;;;;;;10.83;7.30;;;;;;;;;;4432347;32;20209;-56
2021/11/05 04:16:09;;;;;;;10.33;8.00;;;;;;;;;;4432506;32;20252;-56
2021/11/05 04:18:35;;;;;;;18.00;9.23;;;;;;;;;;4432418;32;20609;-58
2021/11/05 04:21:01;;;;;;;17.17;9.43;;;;;;;;;;4432196;32;20212;-57
2021/11/05 04:23:26;;;;;;;15.87;8.70;;;;;;;;;;4432911;32;20336;-56
2021/11/05 04:25:52;;;;;;;18.47;12.10;;;;;;;;;;4432297;32;20762;-55
2021/11/05 04:28:18;;;;;;;15.30;10.10;;;;;;;;;;4431190;32;20367;-56
2021/11/05 04:30:45;;;;;;;20.83;9.93;;;;;;;;;;4432584;32;20666;-56
2021/11/05 04:33:11;;;;;;;19.33;10.50;;;;;;;;;;4432419;32;20546;-57
2021/11/05 04:35:38;;;;;;;16.80;10.10;;;;;;;;;;4432763;32;20298;-57
2021/11/05 04:38:03;;;;;;;14.57;10.73;;;;;;;;;;4432251;32;20269;-56
2021/11/05 04:40:29;;;;;;;18.93;9.97;;;;;;;;;;4431303;32;20320;-56
2021/11/05 04:42:55;;;;;;;23.20;11.67;;;;;;;;;;4432042;32;20252;-57
2021/11/05 04:45:21;;;;;;;27.73;11.20;;;;;;;;;;4432371;32;20290;-57
2021/11/05 04:47:46;;;;;;;22.37;11.13;;;;;;;;;;4432171;32;20220;-57
2021/11/05 04:50:12;;;;;;;24.97;11.83;;;;;;;;;;4431854;32;20317;-57
2021/11/05 04:52:39;;;;;;;22.47;13.53;;;;;;;;;;4431950;32;20307;-57
2021/11/05 04:55:06;;;;;;;30.23;17.47;;;;;;;;;;4430881;32;20217;-57
2021/11/05 04:57:31;;;;;;;31.50;16.67;;;;;;;;;;4432210;32;20302;-56
2021/11/05 04:59:57;;;;;;;29.40;14.37;;;;;;;;;;4432454;32;20792;-57
2021/11/05 05:02:22;;;;;;;26.50;15.47;;;;;;;;;;4432459;32;20291;-56
2021/11/05 05:04:48;;;;;;;24.80;16.60;;;;;;;;;;4432800;32;20272;-56
2021/11/05 05:07:14;;;;;;;35.93;16.13;;;;;;;;;;4432374;32;20593;-56
2021/11/05 05:09:40;;;;;;;33.77;15.57;;;;;;;;;;4432903;32;20233;-55
2021/11/05 05:12:06;;;;;;;24.23;14.27;;;;;;;;;;4432794;32;20282;-57
2021/11/05 05:14:31;;;;;;;28.77;15.63;;;;;;;;;;4432900;32;20371;-57
2021/11/05 05:16:57;;;;;;;27.67;15.93;;;;;;;;;;4432436;32;20221;-56
2021/11/05 05:19:22;;;;;;;32.67;16.37;;;;;;;;;;4432619;32;20343;-56
2021/11/05 05:21:48;;;;;;;35.63;21.10;;;;;;;;;;4432766;32;20232;-56
2021/11/05 05:24:14;;;;;;;44.23;20.90;;;;;;;;;;4428360;32;20350;-56
2021/11/05 05:26:40;;;;;;;39.57;22.83;;;;;;;;;;4431447;32;20232;-57
2021/11/05 05:29:05;;;;;;;40.30;23.90;;;;;;;;;;4432802;32;20333;-57
2021/11/05 05:31:31;;;;;;;35.40;20.77;;;;;;;;;;4432899;32;20303;-56
2021/11/05 05:33:56;;;;;;;53.07;24.53;;;;;;;;;;4432617;32;20275;-55
2021/11/05 05:36:22;;;;;;;48.60;29.73;;;;;;;;;;4432704;32;20264;-56
2021/11/05 05:38:47;;;;;;;45.93;25.27;;;;;;;;;;4432613;32;20384;-56
2021/11/05 05:41:13;;;;;;;41.37;23.57;;;;;;;;;;4432577;32;20450;-55
2021/11/05 05:43:39;;;;;;;41.07;22.77;;;;;;;;;;4432532;32;20271;-58
2021/11/05 05:46:05;;;;;;;45.90;26.57;;;;;;;;;;4432840;32;20228;-56
2021/11/05 05:48:30;;;;;;;59.10;30.50;;;;;;;;;;4433083;32;20648;-56
2021/11/05 05:50:56;;;;;;;55.03;32.13;;;;;;;;;;4432549;32;20276;-57
2021/11/05 05:53:21;;;;;;;65.27;35.83;;;;;;;;;;4432558;32;20363;-56
2021/11/05 05:55:48;;;;;;;62.13;34.20;;;;;;;;;;4432760;32;20310;-56
2021/11/05 05:58:13;;;;;;;69.13;36.13;;;;;;;;;;4431645;32;20290;-57
2021/11/05 06:00:39;;;;;;;65.23;35.73;;;;;;;;;;4432424;32;20651;-56
2021/11/05 06:03:04;;;;;;;56.13;31.00;;;;;;;;;;4434561;32;20314;-57
2021/11/05 06:05:30;;;;;;;49.03;26.50;;;;;;;;;;4431305;32;20306;-56
2021/11/05 06:07:55;;;;;;;55.97;28.63;;;;;;;;;;4419924;32;20302;-56
2021/11/05 06:10:21;;;;;;;55.43;29.30;;;;;;;;;;4428928;32;20702;-56
2021/11/05 06:12:46;;;;;;;52.13;29.13;;;;;;;;;;4433312;32;20664;-55
2021/11/05 06:15:12;;;;;;;49.33;28.43;;;;;;;;;;4434910;32;20937;-56
2021/11/05 06:17:38;;;;;;;44.70;25.20;;;;;;;;;;4434901;32;20275;-57
2021/11/05 06:20:05;;;;;;;49.27;28.53;;;;;;;;;;4435133;32;20608;-57
2021/11/05 06:22:31;;;;;;;47.70;29.07;;;;;;;;;;4435102;32;20225;-56
2021/11/05 06:24:58;;;;;;;67.07;33.30;;;;;;;;;;4430830;32;20275;-56
2021/11/05 06:27:25;;;;;;;58.73;31.00;;;;;;;;;;4434596;32;20216;-57
2021/11/05 06:29:50;;;;;;;45.60;26.20;;;;;;;;;;4434711;32;20307;-57
2021/11/05 06:32:16;;;;;;;50.77;27.93;;;;;;;;;;4434367;32;20295;-57
2021/11/05 06:34:41;;;;;;;44.50;25.90;;;;;;;;;;4434768;32;20802;-59
2021/11/05 06:37:07;;;;;;;42.57;24.83;;;;;;;;;;4434571;32;20576;-56
2021/11/05 06:39:32;;;;;;;45.70;23.83;;;;;;;;;;4434972;32;20284;-57
2021/11/05 06:41:59;;;;;;;39.53;24.20;;;;;;;;;;4434658;32;20278;-55
2021/11/05 06:44:25;;;;;;;43.60;23.30;;;;;;;;;;4433712;32;20903;-55
2021/11/05 06:46:50;;;;;;;41.33;23.47;;;;;;;;;;4434269;32;20656;-55
2021/11/05 06:49:16;;;;;;;39.07;21.67;;;;;;;;;;4434102;32;20303;-56
2021/11/05 06:51:42;;;;;;;39.93;22.80;;;;;;;;;;4433316;32;20296;-56
2021/11/05 06:54:07;;;;;;;40.33;21.97;;;;;;;;;;4434129;32;20350;-57
2021/11/05 06:56:32;;;;;;;43.97;26.07;;;;;;;;;;4433913;32;20371;-56
2021/11/05 06:58:59;;;;;;;35.37;24.10;;;;;;;;;;4433446;32;20358;-55
2021/11/05 07:01:25;;;;;;;44.37;26.63;;;;;;;;;;4416778;32;20311;-56
2021/11/05 07:03:51;;;;;;;42.33;26.53;;;;;;;;;;4417214;32;20556;-56
2021/11/05 07:06:16;;;;;;;45.03;27.37;;;;;;;;;;4425250;32;20263;-56
2021/11/05 07:08:42;;;;;;;43.10;26.40;;;;;;;;;;4432158;32;20330;-60
2021/11/05 07:11:07;;;;;;;49.37;30.97;;;;;;;;;;4432226;32;20264;-57
2021/11/05 07:13:33;;;;;;;51.07;26.03;;;;;;;;;;4430388;32;20307;-56
2021/11/05 07:15:59;;;;;;;45.37;29.93;;;;;;;;;;4433563;32;20768;-55
2021/11/05 07:18:25;;;;;;;59.77;31.23;;;;;;;;;;4434358;32;20288;-56
2021/11/05 07:20:51;;;;;;;43.97;25.33;;;;;;;;;;4433712;32;20364;-56
2021/11/05 07:23:17;;;;;;;44.77;27.17;;;;;;;;;;4433726;32;20209;-56
2021/11/05 07:25:43;;;;;;;51.83;29.60;;;;;;;;;;4429375;32;20314;-57
2021/11/05 07:28:09;;;;;;;56.00;28.47;;;;;;;;;;4432342;32;20360;-56
2021/11/05 07:30:34;;;;;;;48.30;28.57;;;;;;;;;;4433985;32;20271;-56
2021/11/05 07:33:00;;;;;;;53.73;34.07;;;;;;;;;;4433560;32;20253;-56
2021/11/05 07:35:26;;;;;;;57.93;34.03;;;;;;;;;;4433409;32;20288;-56
2021/11/05 07:37:52;;;;;;;54.37;31.77;;;;;;;;;;4433337;32;20229;-56
2021/11/05 07:40:19;;;;;;;52.97;33.07;;;;;;;;;;4433101;32;20402;-57
2021/11/05 07:42:45;;;;;;;58.67;36.63;;;;;;;;;;4433063;32;20233;-56
2021/11/05 07:45:14;;;;;;;60.33;34.50;;;;;;;;;;4433662;32;20263;-56
2021/11/05 07:47:40;;;;;;;82.60;50.83;;;;;;;;;;4433667;32;20668;-56
2021/11/05 07:50:07;;;;;;;58.37;36.47;;;;;;;;;;4432232;32;20644;-56
2021/11/05 07:52:33;;;;;;;57.90;34.13;;;;;;;;;;4433747;32;20696;-56
2021/11/05 07:54:58;;;;;;;50.43;27.00;;;;;;;;;;4433356;32;20368;-57
2021/11/05 07:57:24;;;;;;;108.23;61.57;;;;;;;;;;4432074;32;20286;-56
2021/11/05 07:59:51;;;;;;;65.73;39.00;;;;;;;;;;4433421;32;20341;-58
2021/11/05 08:02:16;;;;;;;54.87;27.40;;;;;;;;;;4433120;32;20360;-55
2021/11/05 08:04:42;;;;;;;42.20;27.33;;;;;;;;;;4433667;32;20319;-57
2021/11/05 08:07:07;;;;;;;35.70;21.03;;;;;;;;;;4432922;32;20287;-56
2021/11/05 08:09:33;;;;;;;42.97;19.50;;;;;;;;;;4433495;32;20286;-56
2021/11/05 08:11:59;;;;;;;30.90;13.47;;;;;;;;;;4432795;32;20263;-55
2021/11/05 08:14:24;;;;;;;28.90;13.17;;;;;;;;;;4433080;32;20649;-56
2021/11/05 08:16:50;;;;;;;19.90;13.27;;;;;;;;;;4433130;32;20304;-56
2021/11/05 08:19:15;;;;;;;27.10;12.07;;;;;;;;;;4431786;32;20319;-56
2021/11/05 08:21:41;;;;;;;17.57;10.63;;;;;;;;;;4433219;32;20277;-55
2021/11/05 08:24:06;;;;;;;15.57;8.23;;;;;;;;;;4428491;32;20298;-57
2021/11/05 08:26:32;;;;;;;21.40;8.87;;;;;;;;;;4432972;32;20400;-56
2021/11/05 08:29:00;;;;;;;22.87;8.13;;;;;;;;;;4433324;32;20260;-57
2021/11/05 08:31:25;;;;;;;23.17;10.03;;;;;;;;;;4433063;32;20244;-56
2021/11/05 08:33:52;;;;;;;29.57;11.40;;;;;;;;;;4432871;32;20343;-57
2021/11/05 08:36:20;;;;;;;33.07;13.87;;;;;;;;;;4432857;32;20244;-57
2021/11/05 08:38:46;;;;;;;27.47;12.37;;;;;;;;;;4432848;32;20245;-56
2021/11/05 08:41:16;;;;;;;19.53;10.70;;;;;;;;;;4432754;32;20311;-56
2021/11/05 08:43:45;;;;;;;17.50;9.03;;;;;;;;;;4433255;32;20344;-56
2021/11/05 08:46:16;;;;;;;17.57;8.63;;;;;;;;;;4432587;32;20495;-55
2021/11/05 08:48:42;;;;;;;16.90;8.40;;;;;;;;;;4432702;32;20223;-55
2021/11/05 08:51:10;;;;;;;21.40;7.67;;;;;;;;;;4432669;32;20443;-55
2021/11/05 08:53:37;;;;;;;14.57;6.87;;;;;;;;;;4432556;32;20224;-56
2021/11/05 08:56:03;;;;;;;17.03;6.83;;;;;;;;;;4432769;32;20228;-56
2021/11/05 08:58:28;;;;;;;10.27;6.20;;;;;;;;;;4432431;32;20339;-57
2021/11/05 09:00:54;;;;;;;11.37;5.23;;;;;;;;;;4431064;32;20424;-56
2021/11/05 09:03:20;;;;;;;15.33;5.97;;;;;;;;;;4432629;32;20318;-57
2021/11/05 09:05:45;;;;;;;17.63;6.40;;;;;;;;;;4427306;32;20351;-57
2021/11/05 09:08:10;;;;;;;20.80;6.17;;;;;;;;;;4417203;32;20239;-57
2021/11/05 09:10:36;;;;;;;18.33;6.67;;;;;;;;;;4417404;32;20264;-57
2021/11/05 09:13:04;;;;;;;23.48;6.50;;;;;;;;;;4417034;32;20323;-56
2021/11/05 09:15:31;;;;;;;9.60;5.63;;;;;;;;;;4421097;32;20529;-57
2021/11/05 09:17:59;;;;;;;17.43;6.10;;;;;;;;;;4430829;32;20236;-56
2021/11/05 09:20:25;;;;;;;15.43;6.37;;;;;;;;;;4432460;32;20225;-55
2021/11/05 09:22:51;;;;;;;9.98;5.75;;;;;;;;;;4432721;32;20411;-55
2021/11/05 09:25:17;;;;;;;12.00;6.63;;;;;;;;;;4432007;32;20289;-57
2021/11/05 09:27:46;;;;;;;22.27;7.10;;;;;;;;;;4432311;32;20228;-55
2021/11/05 09:30:12;;;;;;;10.17;5.47;;;;;;;;;;4432163;32;20639;-56
2021/11/05 09:32:38;;;;;;;15.67;5.80;;;;;;;;;;4430848;32;20325;-57
2021/11/05 09:35:06;;;;;;;13.50;5.28;;;;;;;;;;4432376;32;20252;-57
2021/11/05 09:37:32;;;;;;;11.52;5.32;;;;;;;;;;4433781;32;20353;-56
2021/11/05 09:39:57;;;;;;;16.05;4.70;;;;;;;;;;4435108;32;20654;-58
2021/11/05 09:42:23;;;;;;;10.00;5.25;;;;;;;;;;4434920;32;20256;-56
2021/11/05 09:44:48;;;;;;;13.23;5.85;;;;;;;;;;4434915;32;20272;-56
2021/11/05 09:47:14;;;;;;;17.12;6.55;;;;;;;;;;4433746;32;20229;-56
2021/11/05 09:49:41;;;;;;;17.48;5.47;;;;;;;;;;4433995;32;20311;-58
2021/11/05 09:52:07;;;;;;;12.13;5.10;;;;;;;;;;4435026;32;20212;-55
2021/11/05 09:54:35;;;;;;;9.60;4.55;;;;;;;;;;4435059;32;20267;-57
2021/11/05 09:57:04;;;;;;;12.82;4.00;;;;;;;;;;4435032;32;20352;-55
2021/11/05 09:59:30;;;;;;;10.43;5.25;;;;;;;;;;4434683;32;20231;-55
2021/11/05 10:01:55;;;;;;;13.43;5.93;;;;;;;;;;4434599;32;20315;-55
2021/11/05 10:04:21;;;;;;;12.95;6.28;;;;;;;;;;4435047;32;20284;-57
2021/11/05 10:07:09;;;;;;;12.85;6.32;;;;;;;;;;4422652;32;20225;-57
2021/11/05 10:09:43;;;;;;;13.15;5.03;;;;;;;;;;4419412;32;20217;-56
2021/11/05 10:12:09;;;;;;;15.10;6.72;;;;;;;;;;4419346;32;20365;-56
2021/11/05 10:14:34;;;;;;;20.17;8.25;;;;;;;;;;4419436;32;20288;-55
2021/11/05 10:17:03;;;;;;;19.02;7.70;;;;;;;;;;4432903;32;20277;-56
2021/11/05 10:19:52;;;;;;;21.98;8.57;;;;;;;;;;4434994;32;20209;-57
2021/11/05 10:22:49;;;;;;;13.88;6.15;;;;;;;;;;4434683;32;20228;-56
2021/11/05 10:25:15;;;;;;;15.48;6.18;;;;;;;;;;4434280;32;20201;-55
2021/11/05 10:27:40;;;;;;;17.60;8.20;;;;;;;;;;4435013;32;20311;-56
2021/11/05 10:30:07;;;;;;;11.02;6.15;;;;;;;;;;4434896;32;20597;-56
2021/11/05 10:32:34;;;;;;;15.13;6.05;;;;;;;;;;4434514;32;20233;-56
2021/11/05 10:35:11;;;;;;;24.45;8.63;;;;;;;;;;4432855;32;20255;-56
2021/11/05 10:37:37;;;;;;;11.98;4.32;;;;;;;;;;4433944;32;20252;-57
2021/11/05 10:40:03;;;;;;;9.13;4.22;;;;;;;;;;4433944;32;20747;-55
2021/11/05 10:42:31;;;;;;;10.65;5.05;;;;;;;;;;4434316;32;20251;-55
2021/11/05 10:45:20;;;;;;;12.30;5.80;;;;;;;;;;4434103;32;20201;-56
2021/11/05 10:48:01;;;;;;;13.20;4.20;;;;;;;;;;4434224;32;20737;-56
2021/11/05 10:50:34;;;;;;;12.68;4.40;;;;;;;;;;4434406;32;20255;-56
2021/11/05 10:53:09;;;;;;;20.65;4.05;;;;;;;;;;4434892;32;20213;-56
2021/11/05 10:55:47;;;;;;;21.48;3.03;;;;;;;;;;4434341;32;20184;-57
2021/11/05 10:58:24;;;;;;;12.65;3.35;;;;;;;;;;4434009;32;20622;-56
2021/11/05 11:01:00;;;;;;;11.02;2.83;;;;;;;;;;4433698;32;20234;-57
2021/11/05 11:03:43;;;;;;;17.00;3.62;;;;;;;;;;4432390;32;20389;-57
2021/11/05 11:06:18;;;;;;;16.12;3.70;;;;;;;;;;4425467;32;20225;-56
2021/11/05 11:08:45;;;;;;;23.70;3.78;;;;;;;;;;4418507;32;20239;-56
2021/11/05 11:11:30;;;;;;;22.55;3.45;;;;;;;;;;4416322;32;20265;-56
2021/11/05 11:13:59;;;;;;;19.05;2.90;;;;;;;;;;4417949;32;20270;-56
2021/11/05 11:16:27;;;;;;;9.60;2.95;;;;;;;;;;4428019;32;20637;-57
2021/11/05 11:18:55;;;;;;;12.82;4.35;;;;;;;;;;4433279;32;20279;-57
2021/11/05 11:21:23;;;;;;;14.48;3.85;;;;;;;;;;4431806;32;20248;-57
2021/11/05 11:23:49;;;;;;;10.15;2.85;;;;;;;;;;4424571;32;20249;-56
2021/11/05 11:26:15;;;;;;;11.05;3.67;;;;;;;;;;4432376;32;20386;-56
2021/11/05 11:28:41;;;;;;;10.32;4.00;;;;;;;;;;4433294;32;20295;-56
2021/11/05 11:31:08;;;;;;;13.20;3.70;;;;;;;;;;4432425;32;20228;-56
2021/11/05 11:33:34;;;;;;;15.77;4.12;;;;;;;;;;4433055;32;20332;-56
2021/11/05 11:36:00;;;;;;;23.23;4.05;;;;;;;;;;4431612;32;20221;-56
2021/11/05 11:38:26;;;;;;;13.52;3.95;;;;;;;;;;4432780;32;20326;-57
2021/11/05 11:40:52;;;;;;;20.60;4.40;;;;;;;;;;4432715;32;20616;-57
2021/11/05 11:43:20;;;;;;;23.33;5.00;;;;;;;;;;4432759;32;20310;-56
2021/11/05 11:45:55;;;;;;;19.23;4.47;;;;;;;;;;4430724;32;20528;-56
2021/11/05 11:48:39;;;;;;;19.40;3.15;;;;;;;;;;4432687;32;20246;-57
2021/11/05 11:51:25;;;;;;;22.92;6.12;;;;;;;;;;4432220;32;20265;-57
2021/11/05 11:54:13;;;;;;;19.70;5.03;;;;;;;;;;4432911;32;20202;-56
2021/11/05 11:56:41;;;;;;;11.30;4.45;;;;;;;;;;4417567;32;20313;-56
2021/11/05 11:59:11;;;;;;;20.58;4.03;;;;;;;;;;4419639;32;20652;-56
2021/11/05 12:01:39;;;;;;;21.17;5.32;;;;;;;;;;4432220;32;20664;-56
2021/11/05 12:04:17;;;;;;;13.50;5.00;;;;;;;;;;4431168;32;20306;-56
2021/11/05 12:06:56;;;;;;;19.25;5.60;;;;;;;;;;4432564;32;20296;-56
2021/11/05 12:09:22;;;;;;;21.10;5.07;;;;;;;;;;4432758;32;20564;-56
2021/11/05 12:11:48;;;;;;;21.10;4.10;;;;;;;;;;4430830;32;20240;-56
2021/11/05 12:14:15;;;;;;;20.52;5.22;;;;;;;;;;4432703;32;20762;-55
2021/11/05 12:16:58;;;;;;;20.35;5.00;;;;;;;;;;4432443;32;20313;-55
2021/11/05 12:19:33;;;;;;;44.38;5.75;;;;;;;;;;4432518;32;20200;-56
2021/11/05 12:22:10;;;;;;;11.65;4.40;;;;;;;;;;4432217;32;20236;-56
2021/11/05 12:24:36;;;;;;;15.40;3.90;;;;;;;;;;4428052;32;20224;-56
2021/11/05 12:27:02;;;;;;;30.90;5.12;;;;;;;;;;4432453;32;20224;-56
2021/11/05 12:29:33;;;;;;;13.75;5.18;;;;;;;;;;4432463;32;20370;-58
2021/11/05 12:32:20;;;;;;;22.65;4.70;;;;;;;;;;4431922;32;20289;-56
2021/11/05 12:34:50;;;;;;;22.55;4.87;;;;;;;;;;4422012;32;20259;-56
2021/11/05 12:37:32;;;;;;;27.25;5.65;;;;;;;;;;4432025;32;20296;-57
2021/11/05 12:40:31;;;;;;;18.05;4.12;;;;;;;;;;4431732;32;20208;-57
2021/11/05 12:43:00;;;;;;;17.80;4.75;;;;;;;;;;4432343;32;20359;-56
2021/11/05 12:45:49;;;;;;;27.83;4.80;;;;;;;;;;4432406;32;20255;-56
2021/11/05 12:48:15;;;;;;;24.92;5.15;;;;;;;;;;4431994;32;20314;-56
2021/11/05 12:50:45;;;;;;;24.92;6.03;;;;;;;;;;4431872;32;20205;-56
2021/11/05 12:53:11;;;;;;;24.73;5.05;;;;;;;;;;4432065;32;20240;-55
2021/11/05 12:55:40;;;;;;;15.50;4.32;;;;;;;;;;4432257;32;20631;-56
2021/11/05 12:58:10;;;;;;;39.85;6.07;;;;;;;;;;4431880;32;20296;-56
2021/11/05 13:00:40;;;;;;;28.27;4.80;;;;;;;;;;4431889;32;20709;-56
2021/11/05 13:03:07;;;;;;;13.15;3.78;;;;;;;;;;4432131;32;20247;-56
2021/11/05 13:05:34;;;;;;;29.48;5.57;;;;;;;;;;4426816;32;20654;-56
2021/11/05 13:08:02;;;;;;;26.73;7.07;;;;;;;;;;4416646;32;20225;-56
2021/11/05 13:10:33;;;;;;;17.73;5.20;;;;;;;;;;4416560;32;20253;-56
2021/11/05 13:13:01;;;;;;;16.50;4.20;;;;;;;;;;4418458;32;20583;-56
2021/11/05 13:15:32;;;;;;;20.80;4.85;;;;;;;;;;4423547;32;20271;-56
2021/11/05 13:18:00;;;;;;;30.52;5.40;;;;;;;;;;4434850;32;20629;-56
2021/11/05 13:20:27;;;;;;;17.17;5.68;;;;;;;;;;4434916;32;20212;-56
2021/11/05 13:22:54;;;;;;;21.80;5.18;;;;;;;;;;4435339;32;20272;-56
2021/11/05 13:25:20;;;;;;;24.33;4.30;;;;;;;;;;4434453;32;20261;-57
2021/11/05 13:28:00;;;;;;;22.95;6.03;;;;;;;;;;4434907;32;20392;-56
2021/11/05 13:30:33;;;;;;;23.00;4.82;;;;;;;;;;4435072;32;20214;-56
2021/11/05 13:32:59;;;;;;;19.80;5.80;;;;;;;;;;4434746;32;20245;-56
2021/11/05 13:35:25;;;;;;;32.25;6.50;;;;;;;;;;4435384;32;20327;-57
2021/11/05 13:38:03;;;;;;;19.20;4.85;;;;;;;;;;4434778;32;20233;-56
2021/11/05 13:40:28;;;;;;;42.20;7.47;;;;;;;;;;4435360;32;20251;-56
2021/11/05 13:42:54;;;;;;;20.92;3.62;;;;;;;;;;4434880;32;20292;-56
2021/11/05 13:45:19;;;;;;;19.67;5.10;;;;;;;;;;4435138;32;20285;-57
2021/11/05 13:47:47;;;;;;;19.05;5.68;;;;;;;;;;4434803;32;20255;-56
2021/11/05 13:50:18;;;;;;;22.33;5.45;;;;;;;;;;4434750;32;20220;-56
2021/11/05 13:52:52;;;;;;;22.83;4.95;;;;;;;;;;4433500;32;20272;-56
2021/11/05 13:55:43;;;;;;;19.70;4.28;;;;;;;;;;4433330;32;20350;-57
2021/11/05 13:58:09;;;;;;;16.55;5.47;;;;;;;;;;4434349;32;20241;-58
2021/11/05 14:00:40;;;;;;;17.08;5.00;;;;;;;;;;4423940;32;20776;-58
2021/11/05 14:03:07;;;;;;;22.05;5.68;;;;;;;;;;4419222;32;20215;-56
2021/11/05 14:05:32;;;;;;;27.08;6.35;;;;;;;;;;4423305;32;20284;-56
2021/11/05 14:08:07;;;;;;;40.90;5.95;;;;;;;;;;4434096;32;20285;-56
2021/11/05 14:10:48;;;;;;;26.42;6.75;;;;;;;;;;4434340;32;20300;-55
2021/11/05 14:13:15;;;;;;;14.13;4.75;;;;;;;;;;4434234;32;20353;-57
2021/11/05 14:15:40;;;;;;;21.45;5.57;;;;;;;;;;4434175;32;20708;-55
2021/11/05 14:18:17;;;;;;;27.50;7.20;;;;;;;;;;4433518;32;20213;-56
2021/11/05 14:20:43;;;;;;;21.58;6.47;;;;;;;;;;4434404;32;20281;-56
2021/11/05 14:23:32;;;;;;;20.40;4.90;;;;;;;;;;4432766;32;20241;-55
2021/11/05 14:26:15;;;;;;;14.45;5.30;;;;;;;;;;4433058;32;20308;-55